sensor_id;sensor_type;location;lat;lon;timestamp;P1;durP1;ratioP1;P2;durP2;ratioP2
26488;SDS011;14169;43.684;10.484;2022-08-25T00:01:13;3.10;;;1.60;;
26488;SDS011;14169;43.684;10.484;2022-08-25T00:03:39;2.28;;;1.65;;
26488;SDS011;14169;43.684;10.484;2022-08-25T00:06:06;8.02;;;1.60;;
26488;SDS011;14169;43.684;10.484;2022-08-25T00:08:32;4.07;;;1.73;;
26488;SDS011;14169;43.684;10.484;2022-08-25T00:10:59;1.90;;;1.40;;
26488;SDS011;14169;43.684;10.484;2022-08-25T00:13:26;2.78;;;1.80;;
26488;SDS011;14169;43.684;10.484;2022-08-25T00:15:53;2.42;;;1.38;;
26488;SDS011;14169;43.684;10.484;2022-08-25T00:18:19;2.10;;;1.45;;
26488;SDS011;14169;43.684;10.484;2022-08-25T00:20:44;6.15;;;1.50;;
26488;SDS011;14169;43.684;10.484;2022-08-25T00:23:11;2.58;;;2.00;;
26488;SDS011;14169;43.684;10.484;2022-08-25T00:25:37;2.05;;;1.40;;
26488;SDS011;14169;43.684;10.484;2022-08-25T00:28:02;1.92;;;1.55;;
26488;SDS011;14169;43.684;10.484;2022-08-25T00:30:28;2.97;;;1.63;;
26488;SDS011;14169;43.684;10.484;2022-08-25T00:32:54;3.08;;;1.30;;
26488;SDS011;14169;43.684;10.484;2022-08-25T00:35:19;1.70;;;1.40;;
26488;SDS011;14169;43.684;10.484;2022-08-25T00:37:45;3.63;;;1.50;;
26488;SDS011;14169;43.684;10.484;2022-08-25T00:40:10;2.88;;;1.83;;
26488;SDS011;14169;43.684;10.484;2022-08-25T00:42:36;4.07;;;1.70;;
26488;SDS011;14169;43.684;10.484;2022-08-25T00:45:03;3.53;;;1.80;;
26488;SDS011;14169;43.684;10.484;2022-08-25T00:47:30;3.53;;;1.27;;
26488;SDS011;14169;43.684;10.484;2022-08-25T00:49:57;2.60;;;1.50;;
26488;SDS011;14169;43.684;10.484;2022-08-25T00:52:32;3.25;;;1.60;;
26488;SDS011;14169;43.684;10.484;2022-08-25T00:55:24;2.45;;;1.30;;
26488;SDS011;14169;43.684;10.484;2022-08-25T00:58:19;3.53;;;1.60;;
26488;SDS011;14169;43.684;10.484;2022-08-25T01:00:47;2.35;;;1.58;;
26488;SDS011;14169;43.684;10.484;2022-08-25T01:03:14;2.05;;;1.23;;
26488;SDS011;14169;43.684;10.484;2022-08-25T01:05:43;2.17;;;1.50;;
26488;SDS011;14169;43.684;10.484;2022-08-25T01:08:09;3.80;;;1.38;;
26488;SDS011;14169;43.684;10.484;2022-08-25T01:10:36;3.28;;;1.30;;
26488;SDS011;14169;43.684;10.484;2022-08-25T01:13:06;1.75;;;1.40;;
26488;SDS011;14169;43.684;10.484;2022-08-25T01:15:37;5.30;;;1.45;;
26488;SDS011;14169;43.684;10.484;2022-08-25T01:18:02;1.70;;;1.60;;
26488;SDS011;14169;43.684;10.484;2022-08-25T01:20:29;4.20;;;1.60;;
26488;SDS011;14169;43.684;10.484;2022-08-25T01:22:56;2.53;;;1.52;;
26488;SDS011;14169;43.684;10.484;2022-08-25T01:28:04;2.08;;;1.52;;
26488;SDS011;14169;43.684;10.484;2022-08-25T01:30:30;2.20;;;1.40;;
26488;SDS011;14169;43.684;10.484;2022-08-25T01:32:56;2.58;;;1.55;;
26488;SDS011;14169;43.684;10.484;2022-08-25T01:35:21;3.03;;;1.52;;
26488;SDS011;14169;43.684;10.484;2022-08-25T01:37:47;2.47;;;1.20;;
26488;SDS011;14169;43.684;10.484;2022-08-25T01:40:13;1.63;;;1.27;;
26488;SDS011;14169;43.684;10.484;2022-08-25T01:43:06;1.27;;;1.17;;
26488;SDS011;14169;43.684;10.484;2022-08-25T01:45:43;3.78;;;1.35;;
26488;SDS011;14169;43.684;10.484;2022-08-25T01:48:11;2.20;;;1.50;;
26488;SDS011;14169;43.684;10.484;2022-08-25T01:50:37;2.13;;;1.50;;
26488;SDS011;14169;43.684;10.484;2022-08-25T01:53:11;3.15;;;1.20;;
26488;SDS011;14169;43.684;10.484;2022-08-25T01:58:21;1.73;;;1.25;;
26488;SDS011;14169;43.684;10.484;2022-08-25T02:00:52;3.10;;;1.30;;
26488;SDS011;14169;43.684;10.484;2022-08-25T02:03:21;2.10;;;1.45;;
26488;SDS011;14169;43.684;10.484;2022-08-25T02:05:49;1.85;;;1.40;;
26488;SDS011;14169;43.684;10.484;2022-08-25T02:08:15;2.28;;;1.30;;
26488;SDS011;14169;43.684;10.484;2022-08-25T02:10:41;4.28;;;1.55;;
26488;SDS011;14169;43.684;10.484;2022-08-25T02:13:07;1.95;;;1.52;;
26488;SDS011;14169;43.684;10.484;2022-08-25T02:15:33;3.13;;;1.77;;
26488;SDS011;14169;43.684;10.484;2022-08-25T02:17:59;1.67;;;1.58;;
26488;SDS011;14169;43.684;10.484;2022-08-25T02:20:25;1.95;;;1.42;;
26488;SDS011;14169;43.684;10.484;2022-08-25T02:22:50;2.15;;;1.50;;
26488;SDS011;14169;43.684;10.484;2022-08-25T02:25:17;2.47;;;1.35;;
26488;SDS011;14169;43.684;10.484;2022-08-25T02:27:43;2.08;;;1.50;;
26488;SDS011;14169;43.684;10.484;2022-08-25T02:30:09;2.47;;;1.40;;
26488;SDS011;14169;43.684;10.484;2022-08-25T02:32:37;7.18;;;2.20;;
26488;SDS011;14169;43.684;10.484;2022-08-25T02:35:03;2.03;;;1.27;;
26488;SDS011;14169;43.684;10.484;2022-08-25T02:37:30;2.08;;;1.50;;
26488;SDS011;14169;43.684;10.484;2022-08-25T02:39:56;2.92;;;1.55;;
26488;SDS011;14169;43.684;10.484;2022-08-25T02:42:21;3.47;;;1.60;;
26488;SDS011;14169;43.684;10.484;2022-08-25T02:44:48;2.95;;;1.58;;
26488;SDS011;14169;43.684;10.484;2022-08-25T02:47:14;3.20;;;1.58;;
26488;SDS011;14169;43.684;10.484;2022-08-25T02:49:40;2.67;;;1.58;;
26488;SDS011;14169;43.684;10.484;2022-08-25T02:52:05;3.00;;;1.90;;
26488;SDS011;14169;43.684;10.484;2022-08-25T02:54:31;1.50;;;1.40;;
26488;SDS011;14169;43.684;10.484;2022-08-25T02:56:56;2.38;;;1.60;;
26488;SDS011;14169;43.684;10.484;2022-08-25T02:59:22;2.42;;;1.75;;
26488;SDS011;14169;43.684;10.484;2022-08-25T03:01:47;3.35;;;1.83;;
26488;SDS011;14169;43.684;10.484;2022-08-25T03:04:12;2.13;;;1.80;;
26488;SDS011;14169;43.684;10.484;2022-08-25T03:06:38;2.67;;;1.70;;
26488;SDS011;14169;43.684;10.484;2022-08-25T03:09:04;2.28;;;1.60;;
26488;SDS011;14169;43.684;10.484;2022-08-25T03:11:30;4.55;;;1.73;;
26488;SDS011;14169;43.684;10.484;2022-08-25T03:13:56;3.05;;;2.05;;
26488;SDS011;14169;43.684;10.484;2022-08-25T03:16:21;1.83;;;1.55;;
26488;SDS011;14169;43.684;10.484;2022-08-25T03:18:47;1.95;;;1.52;;
26488;SDS011;14169;43.684;10.484;2022-08-25T03:21:13;2.25;;;1.50;;
26488;SDS011;14169;43.684;10.484;2022-08-25T03:23:40;5.35;;;1.88;;
26488;SDS011;14169;43.684;10.484;2022-08-25T03:26:06;3.13;;;1.80;;
26488;SDS011;14169;43.684;10.484;2022-08-25T03:28:51;2.97;;;1.70;;
26488;SDS011;14169;43.684;10.484;2022-08-25T03:31:19;3.67;;;1.67;;
26488;SDS011;14169;43.684;10.484;2022-08-25T03:33:46;1.83;;;1.67;;
26488;SDS011;14169;43.684;10.484;2022-08-25T03:36:11;2.50;;;1.75;;
26488;SDS011;14169;43.684;10.484;2022-08-25T03:38:37;5.43;;;1.67;;
26488;SDS011;14169;43.684;10.484;2022-08-25T03:43:54;1.88;;;1.52;;
26488;SDS011;14169;43.684;10.484;2022-08-25T03:46:22;3.75;;;1.65;;
26488;SDS011;14169;43.684;10.484;2022-08-25T03:49:00;1.45;;;1.35;;
26488;SDS011;14169;43.684;10.484;2022-08-25T03:51:31;2.90;;;2.20;;
26488;SDS011;14169;43.684;10.484;2022-08-25T03:53:59;2.30;;;2.10;;
26488;SDS011;14169;43.684;10.484;2022-08-25T03:56:25;3.08;;;1.83;;
26488;SDS011;14169;43.684;10.484;2022-08-25T03:58:54;2.85;;;1.80;;
26488;SDS011;14169;43.684;10.484;2022-08-25T04:01:20;3.83;;;2.20;;
26488;SDS011;14169;43.684;10.484;2022-08-25T04:03:47;2.35;;;1.55;;
26488;SDS011;14169;43.684;10.484;2022-08-25T04:06:12;2.58;;;1.77;;
26488;SDS011;14169;43.684;10.484;2022-08-25T04:08:40;3.50;;;2.30;;
26488;SDS011;14169;43.684;10.484;2022-08-25T04:11:06;2.83;;;1.75;;
26488;SDS011;14169;43.684;10.484;2022-08-25T04:13:37;3.05;;;1.85;;
26488;SDS011;14169;43.684;10.484;2022-08-25T04:19:25;2.58;;;2.20;;
26488;SDS011;14169;43.684;10.484;2022-08-25T04:21:50;2.28;;;1.65;;
26488;SDS011;14169;43.684;10.484;2022-08-25T04:24:16;2.42;;;1.90;;
26488;SDS011;14169;43.684;10.484;2022-08-25T04:26:44;2.72;;;2.05;;
26488;SDS011;14169;43.684;10.484;2022-08-25T04:29:12;3.53;;;2.00;;
26488;SDS011;14169;43.684;10.484;2022-08-25T04:31:39;2.17;;;1.77;;
26488;SDS011;14169;43.684;10.484;2022-08-25T04:34:07;3.13;;;2.30;;
26488;SDS011;14169;43.684;10.484;2022-08-25T04:36:33;2.17;;;1.98;;
26488;SDS011;14169;43.684;10.484;2022-08-25T04:38:58;2.40;;;1.65;;
26488;SDS011;14169;43.684;10.484;2022-08-25T04:41:25;2.30;;;1.83;;
26488;SDS011;14169;43.684;10.484;2022-08-25T04:43:50;3.10;;;1.90;;
26488;SDS011;14169;43.684;10.484;2022-08-25T04:46:17;2.97;;;2.42;;
26488;SDS011;14169;43.684;10.484;2022-08-25T04:48:45;3.90;;;2.35;;
26488;SDS011;14169;43.684;10.484;2022-08-25T04:51:18;2.83;;;2.63;;
26488;SDS011;14169;43.684;10.484;2022-08-25T04:53:47;2.72;;;2.38;;
26488;SDS011;14169;43.684;10.484;2022-08-25T04:56:14;3.25;;;2.63;;
26488;SDS011;14169;43.684;10.484;2022-08-25T04:58:42;3.30;;;2.50;;
26488;SDS011;14169;43.684;10.484;2022-08-25T05:01:12;4.30;;;2.40;;
26488;SDS011;14169;43.684;10.484;2022-08-25T05:03:42;2.33;;;2.13;;
26488;SDS011;14169;43.684;10.484;2022-08-25T05:06:09;2.97;;;2.30;;
26488;SDS011;14169;43.684;10.484;2022-08-25T05:08:35;2.75;;;2.22;;
26488;SDS011;14169;43.684;10.484;2022-08-25T05:11:07;5.38;;;2.42;;
26488;SDS011;14169;43.684;10.484;2022-08-25T05:13:37;7.65;;;3.00;;
26488;SDS011;14169;43.684;10.484;2022-08-25T05:16:03;2.47;;;1.88;;
26488;SDS011;14169;43.684;10.484;2022-08-25T05:18:30;2.60;;;2.40;;
26488;SDS011;14169;43.684;10.484;2022-08-25T05:20:59;4.05;;;2.65;;
26488;SDS011;14169;43.684;10.484;2022-08-25T05:23:26;3.75;;;1.65;;
26488;SDS011;14169;43.684;10.484;2022-08-25T05:25:52;3.90;;;2.42;;
26488;SDS011;14169;43.684;10.484;2022-08-25T05:28:19;3.30;;;1.60;;
26488;SDS011;14169;43.684;10.484;2022-08-25T05:30:45;3.03;;;1.60;;
26488;SDS011;14169;43.684;10.484;2022-08-25T05:33:13;4.15;;;2.28;;
26488;SDS011;14169;43.684;10.484;2022-08-25T05:35:40;6.15;;;2.38;;
26488;SDS011;14169;43.684;10.484;2022-08-25T05:38:05;2.88;;;1.67;;
26488;SDS011;14169;43.684;10.484;2022-08-25T05:40:31;6.38;;;2.50;;
26488;SDS011;14169;43.684;10.484;2022-08-25T05:42:56;3.67;;;2.03;;
26488;SDS011;14169;43.684;10.484;2022-08-25T05:45:22;2.63;;;1.90;;
26488;SDS011;14169;43.684;10.484;2022-08-25T05:47:48;3.85;;;1.67;;
26488;SDS011;14169;43.684;10.484;2022-08-25T05:50:14;4.93;;;2.00;;
26488;SDS011;14169;43.684;10.484;2022-08-25T05:52:40;2.65;;;1.92;;
26488;SDS011;14169;43.684;10.484;2022-08-25T05:55:06;2.20;;;1.83;;
26488;SDS011;14169;43.684;10.484;2022-08-25T05:57:32;3.92;;;2.40;;
26488;SDS011;14169;43.684;10.484;2022-08-25T06:00:03;3.65;;;2.40;;
26488;SDS011;14169;43.684;10.484;2022-08-25T06:02:30;2.60;;;2.40;;
26488;SDS011;14169;43.684;10.484;2022-08-25T06:05:13;4.50;;;2.65;;
26488;SDS011;14169;43.684;10.484;2022-08-25T06:07:42;5.25;;;2.78;;
26488;SDS011;14169;43.684;10.484;2022-08-25T06:10:08;5.30;;;3.50;;
26488;SDS011;14169;43.684;10.484;2022-08-25T06:12:36;4.10;;;3.60;;
26488;SDS011;14169;43.684;10.484;2022-08-25T06:15:02;3.80;;;3.10;;
26488;SDS011;14169;43.684;10.484;2022-08-25T06:17:29;4.75;;;3.40;;
26488;SDS011;14169;43.684;10.484;2022-08-25T06:19:54;6.25;;;2.78;;
26488;SDS011;14169;43.684;10.484;2022-08-25T06:22:20;5.53;;;3.78;;
26488;SDS011;14169;43.684;10.484;2022-08-25T06:24:46;4.60;;;3.55;;
26488;SDS011;14169;43.684;10.484;2022-08-25T06:27:11;4.05;;;3.10;;
26488;SDS011;14169;43.684;10.484;2022-08-25T06:29:37;7.00;;;3.22;;
26488;SDS011;14169;43.684;10.484;2022-08-25T06:32:02;6.30;;;3.00;;
26488;SDS011;14169;43.684;10.484;2022-08-25T06:34:28;5.20;;;3.13;;
26488;SDS011;14169;43.684;10.484;2022-08-25T06:36:53;11.27;;;3.45;;
26488;SDS011;14169;43.684;10.484;2022-08-25T06:39:19;3.83;;;2.95;;
26488;SDS011;14169;43.684;10.484;2022-08-25T06:41:45;2.97;;;2.58;;
26488;SDS011;14169;43.684;10.484;2022-08-25T06:44:14;3.40;;;2.50;;
26488;SDS011;14169;43.684;10.484;2022-08-25T06:46:39;6.97;;;2.97;;
26488;SDS011;14169;43.684;10.484;2022-08-25T06:49:05;3.97;;;2.40;;
26488;SDS011;14169;43.684;10.484;2022-08-25T06:51:31;5.35;;;2.90;;
26488;SDS011;14169;43.684;10.484;2022-08-25T06:53:57;4.57;;;2.65;;
26488;SDS011;14169;43.684;10.484;2022-08-25T06:56:24;2.50;;;2.30;;
26488;SDS011;14169;43.684;10.484;2022-08-25T06:58:49;2.55;;;2.35;;
26488;SDS011;14169;43.684;10.484;2022-08-25T07:01:16;5.10;;;3.08;;
26488;SDS011;14169;43.684;10.484;2022-08-25T07:03:47;10.18;;;2.45;;
26488;SDS011;14169;43.684;10.484;2022-08-25T07:06:16;9.80;;;2.05;;
26488;SDS011;14169;43.684;10.484;2022-08-25T07:08:42;11.82;;;2.47;;
26488;SDS011;14169;43.684;10.484;2022-08-25T07:11:09;3.25;;;2.15;;
26488;SDS011;14169;43.684;10.484;2022-08-25T07:13:36;5.38;;;1.80;;
26488;SDS011;14169;43.684;10.484;2022-08-25T07:16:02;2.47;;;2.08;;
26488;SDS011;14169;43.684;10.484;2022-08-25T07:18:29;4.32;;;2.40;;
26488;SDS011;14169;43.684;10.484;2022-08-25T07:20:56;4.47;;;2.10;;
26488;SDS011;14169;43.684;10.484;2022-08-25T07:23:22;4.20;;;2.38;;
26488;SDS011;14169;43.684;10.484;2022-08-25T07:25:48;2.55;;;2.25;;
26488;SDS011;14169;43.684;10.484;2022-08-25T07:28:14;3.45;;;2.03;;
26488;SDS011;14169;43.684;10.484;2022-08-25T07:30:40;2.42;;;1.70;;
26488;SDS011;14169;43.684;10.484;2022-08-25T07:33:06;2.08;;;1.88;;
26488;SDS011;14169;43.684;10.484;2022-08-25T07:35:31;2.28;;;2.08;;
26488;SDS011;14169;43.684;10.484;2022-08-25T07:37:57;4.90;;;2.53;;
26488;SDS011;14169;43.684;10.484;2022-08-25T07:40:30;3.90;;;2.10;;
26488;SDS011;14169;43.684;10.484;2022-08-25T07:42:59;2.47;;;1.85;;
26488;SDS011;14169;43.684;10.484;2022-08-25T07:45:29;2.38;;;2.15;;
26488;SDS011;14169;43.684;10.484;2022-08-25T07:47:57;4.22;;;2.40;;
26488;SDS011;14169;43.684;10.484;2022-08-25T07:50:25;4.05;;;1.70;;
26488;SDS011;14169;43.684;10.484;2022-08-25T07:52:51;6.63;;;2.05;;
26488;SDS011;14169;43.684;10.484;2022-08-25T07:55:17;3.17;;;2.03;;
26488;SDS011;14169;43.684;10.484;2022-08-25T07:57:43;3.75;;;1.88;;
26488;SDS011;14169;43.684;10.484;2022-08-25T08:00:09;2.30;;;2.10;;
26488;SDS011;14169;43.684;10.484;2022-08-25T08:02:37;3.10;;;1.95;;
26488;SDS011;14169;43.684;10.484;2022-08-25T08:05:03;3.58;;;1.88;;
26488;SDS011;14169;43.684;10.484;2022-08-25T08:07:29;2.80;;;1.83;;
26488;SDS011;14169;43.684;10.484;2022-08-25T08:09:55;3.63;;;1.80;;
26488;SDS011;14169;43.684;10.484;2022-08-25T08:12:22;1.95;;;1.67;;
26488;SDS011;14169;43.684;10.484;2022-08-25T08:14:49;2.85;;;1.90;;
26488;SDS011;14169;43.684;10.484;2022-08-25T08:17:14;5.15;;;1.80;;
26488;SDS011;14169;43.684;10.484;2022-08-25T08:19:40;4.93;;;1.50;;
26488;SDS011;14169;43.684;10.484;2022-08-25T08:22:05;3.17;;;1.75;;
26488;SDS011;14169;43.684;10.484;2022-08-25T08:24:32;3.05;;;2.17;;
26488;SDS011;14169;43.684;10.484;2022-08-25T08:27:08;2.67;;;2.00;;
26488;SDS011;14169;43.684;10.484;2022-08-25T08:29:35;2.30;;;2.10;;
26488;SDS011;14169;43.684;10.484;2022-08-25T08:32:03;2.50;;;1.90;;
26488;SDS011;14169;43.684;10.484;2022-08-25T08:34:29;2.20;;;2.00;;
26488;SDS011;14169;43.684;10.484;2022-08-25T08:36:55;1.92;;;1.70;;
26488;SDS011;14169;43.684;10.484;2022-08-25T08:39:21;3.35;;;2.10;;
26488;SDS011;14169;43.684;10.484;2022-08-25T08:41:56;1.70;;;1.60;;
26488;SDS011;14169;43.684;10.484;2022-08-25T08:56:05;2.35;;;1.85;;
26488;SDS011;14169;43.684;10.484;2022-08-25T09:01:34;2.20;;;1.85;;
26488;SDS011;14169;43.684;10.484;2022-08-25T09:04:10;2.53;;;1.90;;
26488;SDS011;14169;43.684;10.484;2022-08-25T09:06:43;3.50;;;1.73;;
26488;SDS011;14169;43.684;10.484;2022-08-25T09:09:12;2.78;;;2.05;;
26488;SDS011;14169;43.684;10.484;2022-08-25T09:17:00;3.47;;;2.20;;
26488;SDS011;14169;43.684;10.484;2022-08-25T09:30:22;6.47;;;1.70;;
26488;SDS011;14169;43.684;10.484;2022-08-25T09:32:49;1.95;;;1.75;;
26488;SDS011;14169;43.684;10.484;2022-08-25T09:40:24;3.25;;;1.50;;
26488;SDS011;14169;43.684;10.484;2022-08-25T09:42:52;2.85;;;1.50;;
26488;SDS011;14169;43.684;10.484;2022-08-25T09:50:59;2.05;;;1.60;;
26488;SDS011;14169;43.684;10.484;2022-08-25T09:53:26;3.35;;;1.30;;
26488;SDS011;14169;43.684;10.484;2022-08-25T09:56:03;2.17;;;1.48;;
26488;SDS011;14169;43.684;10.484;2022-08-25T09:58:31;3.78;;;1.10;;
26488;SDS011;14169;43.684;10.484;2022-08-25T10:04:31;1.30;;;1.20;;
26488;SDS011;14169;43.684;10.484;2022-08-25T10:06:58;1.67;;;1.20;;
26488;SDS011;14169;43.684;10.484;2022-08-25T10:09:33;1.40;;;1.23;;
26488;SDS011;14169;43.684;10.484;2022-08-25T10:12:48;1.55;;;1.00;;
26488;SDS011;14169;43.684;10.484;2022-08-25T10:15:14;2.88;;;1.45;;
26488;SDS011;14169;43.684;10.484;2022-08-25T10:17:44;3.17;;;1.20;;
26488;SDS011;14169;43.684;10.484;2022-08-25T10:22:36;3.15;;;1.10;;
26488;SDS011;14169;43.684;10.484;2022-08-25T10:25:03;1.98;;;1.38;;
26488;SDS011;14169;43.684;10.484;2022-08-25T10:33:04;2.70;;;1.08;;
26488;SDS011;14169;43.684;10.484;2022-08-25T10:39:00;2.53;;;1.20;;
26488;SDS011;14169;43.684;10.484;2022-08-25T10:42:10;1.23;;;1.13;;
26488;SDS011;14169;43.684;10.484;2022-08-25T10:49:55;2.15;;;1.10;;
26488;SDS011;14169;43.684;10.484;2022-08-25T10:55:43;1.30;;;1.00;;
26488;SDS011;14169;43.684;10.484;2022-08-25T11:04:11;2.30;;;1.40;;
26488;SDS011;14169;43.684;10.484;2022-08-25T11:07:18;1.63;;;1.33;;
26488;SDS011;14169;43.684;10.484;2022-08-25T11:13:03;4.22;;;1.42;;
26488;SDS011;14169;43.684;10.484;2022-08-25T11:15:50;1.42;;;1.00;;
26488;SDS011;14169;43.684;10.484;2022-08-25T11:18:19;3.03;;;1.10;;
26488;SDS011;14169;43.684;10.484;2022-08-25T11:20:51;1.98;;;1.20;;
26488;SDS011;14169;43.684;10.484;2022-08-25T11:23:37;1.33;;;1.23;;
26488;SDS011;14169;43.684;10.484;2022-08-25T11:26:10;1.20;;;1.10;;
26488;SDS011;14169;43.684;10.484;2022-08-25T11:28:43;2.20;;;1.20;;
26488;SDS011;14169;43.684;10.484;2022-08-25T11:33:44;1.90;;;1.10;;
26488;SDS011;14169;43.684;10.484;2022-08-25T11:49:59;1.98;;;1.50;;
26488;SDS011;14169;43.684;10.484;2022-08-25T11:55:06;1.10;;;1.00;;
26488;SDS011;14169;43.684;10.484;2022-08-25T11:57:37;4.38;;;1.20;;
26488;SDS011;14169;43.684;10.484;2022-08-25T12:19:24;1.15;;;1.00;;
26488;SDS011;14169;43.684;10.484;2022-08-25T12:21:50;3.05;;;1.10;;
26488;SDS011;14169;43.684;10.484;2022-08-25T12:24:19;1.58;;;1.20;;
26488;SDS011;14169;43.684;10.484;2022-08-25T12:29:31;1.63;;;0.98;;
26488;SDS011;14169;43.684;10.484;2022-08-25T12:37:26;1.50;;;1.30;;
26488;SDS011;14169;43.684;10.484;2022-08-25T12:40:02;2.00;;;1.20;;
26488;SDS011;14169;43.684;10.484;2022-08-25T12:47:50;1.52;;;1.20;;
26488;SDS011;14169;43.684;10.484;2022-08-25T12:50:35;1.95;;;1.10;;
26488;SDS011;14169;43.684;10.484;2022-08-25T12:56:02;1.77;;;1.30;;
26488;SDS011;14169;43.684;10.484;2022-08-25T12:58:36;1.30;;;1.20;;
26488;SDS011;14169;43.684;10.484;2022-08-25T13:03:43;2.55;;;1.42;;
26488;SDS011;14169;43.684;10.484;2022-08-25T13:11:55;1.70;;;1.15;;
26488;SDS011;14169;43.684;10.484;2022-08-25T13:14:36;0.98;;;0.88;;
26488;SDS011;14169;43.684;10.484;2022-08-25T13:17:05;1.80;;;1.08;;
26488;SDS011;14169;43.684;10.484;2022-08-25T13:19:32;2.83;;;1.02;;
26488;SDS011;14169;43.684;10.484;2022-08-25T13:21:59;1.13;;;1.00;;
26488;SDS011;14169;43.684;10.484;2022-08-25T13:24:28;1.00;;;0.90;;
26488;SDS011;14169;43.684;10.484;2022-08-25T13:27:01;1.05;;;0.95;;
26488;SDS011;14169;43.684;10.484;2022-08-25T13:29:33;3.08;;;1.15;;
26488;SDS011;14169;43.684;10.484;2022-08-25T13:32:05;1.63;;;1.00;;
26488;SDS011;14169;43.684;10.484;2022-08-25T13:40:05;1.48;;;1.00;;
26488;SDS011;14169;43.684;10.484;2022-08-25T13:43:02;3.28;;;1.10;;
26488;SDS011;14169;43.684;10.484;2022-08-25T13:45:37;4.88;;;0.93;;
26488;SDS011;14169;43.684;10.484;2022-08-25T13:48:09;1.77;;;0.80;;
26488;SDS011;14169;43.684;10.484;2022-08-25T13:50:36;1.58;;;0.82;;
26488;SDS011;14169;43.684;10.484;2022-08-25T13:55:50;1.17;;;0.82;;
26488;SDS011;14169;43.684;10.484;2022-08-25T13:58:26;1.85;;;0.88;;
26488;SDS011;14169;43.684;10.484;2022-08-25T14:01:06;2.97;;;1.20;;
26488;SDS011;14169;43.684;10.484;2022-08-25T14:03:54;1.63;;;1.00;;
26488;SDS011;14169;43.684;10.484;2022-08-25T14:06:23;2.45;;;1.17;;
26488;SDS011;14169;43.684;10.484;2022-08-25T14:11:27;2.72;;;1.10;;
26488;SDS011;14169;43.684;10.484;2022-08-25T14:14:02;1.20;;;1.10;;
26488;SDS011;14169;43.684;10.484;2022-08-25T14:16:34;1.90;;;1.10;;
26488;SDS011;14169;43.684;10.484;2022-08-25T14:19:03;1.00;;;0.90;;
26488;SDS011;14169;43.684;10.484;2022-08-25T14:21:30;2.33;;;0.90;;
26488;SDS011;14169;43.684;10.484;2022-08-25T14:23:57;1.80;;;0.95;;
26488;SDS011;14169;43.684;10.484;2022-08-25T14:26:24;1.10;;;1.00;;
26488;SDS011;14169;43.684;10.484;2022-08-25T14:28:50;1.05;;;0.70;;
26488;SDS011;14169;43.684;10.484;2022-08-25T14:31:23;1.48;;;1.08;;
26488;SDS011;14169;43.684;10.484;2022-08-25T14:34:02;1.92;;;1.13;;
26488;SDS011;14169;43.684;10.484;2022-08-25T14:36:29;2.75;;;1.10;;
26488;SDS011;14169;43.684;10.484;2022-08-25T14:38:57;1.95;;;1.20;;
26488;SDS011;14169;43.684;10.484;2022-08-25T14:41:23;1.17;;;1.00;;
26488;SDS011;14169;43.684;10.484;2022-08-25T14:43:50;4.53;;;1.10;;
26488;SDS011;14169;43.684;10.484;2022-08-25T14:46:20;1.73;;;0.80;;
26488;SDS011;14169;43.684;10.484;2022-08-25T14:48:49;1.63;;;0.70;;
26488;SDS011;14169;43.684;10.484;2022-08-25T14:51:21;1.90;;;0.90;;
26488;SDS011;14169;43.684;10.484;2022-08-25T14:53:48;3.08;;;1.27;;
26488;SDS011;14169;43.684;10.484;2022-08-25T14:56:14;1.17;;;1.08;;
26488;SDS011;14169;43.684;10.484;2022-08-25T14:58:40;3.90;;;0.93;;
26488;SDS011;14169;43.684;10.484;2022-08-25T15:01:07;4.72;;;1.10;;
26488;SDS011;14169;43.684;10.484;2022-08-25T15:03:38;5.72;;;1.30;;
26488;SDS011;14169;43.684;10.484;2022-08-25T15:06:07;0.93;;;0.90;;
26488;SDS011;14169;43.684;10.484;2022-08-25T15:08:35;2.25;;;0.98;;
26488;SDS011;14169;43.684;10.484;2022-08-25T15:11:19;3.30;;;0.93;;
26488;SDS011;14169;43.684;10.484;2022-08-25T15:13:45;0.82;;;0.82;;
26488;SDS011;14169;43.684;10.484;2022-08-25T15:16:14;3.15;;;1.00;;
26488;SDS011;14169;43.684;10.484;2022-08-25T15:18:46;0.80;;;0.80;;
26488;SDS011;14169;43.684;10.484;2022-08-25T15:21:12;3.67;;;1.10;;
26488;SDS011;14169;43.684;10.484;2022-08-25T15:23:38;1.95;;;0.80;;
26488;SDS011;14169;43.684;10.484;2022-08-25T15:26:03;2.05;;;0.98;;
26488;SDS011;14169;43.684;10.484;2022-08-25T15:28:29;1.65;;;0.90;;
26488;SDS011;14169;43.684;10.484;2022-08-25T15:30:54;1.25;;;0.90;;
26488;SDS011;14169;43.684;10.484;2022-08-25T15:33:19;1.45;;;0.82;;
26488;SDS011;14169;43.684;10.484;2022-08-25T15:35:46;1.17;;;0.80;;
26488;SDS011;14169;43.684;10.484;2022-08-25T15:38:12;0.90;;;0.90;;
26488;SDS011;14169;43.684;10.484;2022-08-25T15:40:38;1.20;;;1.10;;
26488;SDS011;14169;43.684;10.484;2022-08-25T15:43:04;1.00;;;0.90;;
26488;SDS011;14169;43.684;10.484;2022-08-25T15:45:29;2.15;;;1.20;;
26488;SDS011;14169;43.684;10.484;2022-08-25T15:47:56;2.08;;;1.00;;
26488;SDS011;14169;43.684;10.484;2022-08-25T15:50:21;1.50;;;0.98;;
26488;SDS011;14169;43.684;10.484;2022-08-25T15:52:47;3.03;;;1.05;;
26488;SDS011;14169;43.684;10.484;2022-08-25T15:55:13;2.00;;;1.00;;
26488;SDS011;14169;43.684;10.484;2022-08-25T15:57:40;1.67;;;0.88;;
26488;SDS011;14169;43.684;10.484;2022-08-25T16:00:06;3.55;;;1.33;;
26488;SDS011;14169;43.684;10.484;2022-08-25T16:02:37;1.43;;;0.87;;
26488;SDS011;14169;43.684;10.484;2022-08-25T16:05:03;1.13;;;0.98;;
26488;SDS011;14169;43.684;10.484;2022-08-25T16:07:31;0.95;;;0.95;;
26488;SDS011;14169;43.684;10.484;2022-08-25T16:09:57;6.97;;;1.40;;
26488;SDS011;14169;43.684;10.484;2022-08-25T16:12:23;1.23;;;1.00;;
26488;SDS011;14169;43.684;10.484;2022-08-25T16:14:50;1.92;;;1.00;;
26488;SDS011;14169;43.684;10.484;2022-08-25T16:17:17;2.80;;;1.35;;
26488;SDS011;14169;43.684;10.484;2022-08-25T16:19:43;2.88;;;1.20;;
26488;SDS011;14169;43.684;10.484;2022-08-25T16:22:09;1.35;;;1.05;;
26488;SDS011;14169;43.684;10.484;2022-08-25T16:24:34;2.17;;;1.10;;
26488;SDS011;14169;43.684;10.484;2022-08-25T16:27:04;2.25;;;1.10;;
26488;SDS011;14169;43.684;10.484;2022-08-25T16:29:35;1.48;;;1.20;;
26488;SDS011;14169;43.684;10.484;2022-08-25T16:32:04;2.05;;;1.17;;
26488;SDS011;14169;43.684;10.484;2022-08-25T16:34:31;1.70;;;0.90;;
26488;SDS011;14169;43.684;10.484;2022-08-25T16:36:57;2.53;;;1.10;;
26488;SDS011;14169;43.684;10.484;2022-08-25T16:39:22;1.92;;;0.90;;
26488;SDS011;14169;43.684;10.484;2022-08-25T16:41:48;2.67;;;1.20;;
26488;SDS011;14169;43.684;10.484;2022-08-25T16:44:14;1.08;;;0.93;;
26488;SDS011;14169;43.684;10.484;2022-08-25T16:46:41;1.35;;;1.00;;
26488;SDS011;14169;43.684;10.484;2022-08-25T16:49:07;1.30;;;1.00;;
26488;SDS011;14169;43.684;10.484;2022-08-25T16:51:34;3.47;;;0.90;;
26488;SDS011;14169;43.684;10.484;2022-08-25T16:54:01;1.20;;;1.10;;
26488;SDS011;14169;43.684;10.484;2022-08-25T16:56:45;1.17;;;1.00;;
26488;SDS011;14169;43.684;10.484;2022-08-25T16:59:10;2.13;;;1.20;;
26488;SDS011;14169;43.684;10.484;2022-08-25T17:01:37;2.08;;;1.20;;
26488;SDS011;14169;43.684;10.484;2022-08-25T17:04:04;3.53;;;1.00;;
26488;SDS011;14169;43.684;10.484;2022-08-25T17:06:35;1.60;;;1.08;;
26488;SDS011;14169;43.684;10.484;2022-08-25T17:09:04;2.72;;;1.23;;
26488;SDS011;14169;43.684;10.484;2022-08-25T17:11:31;2.35;;;1.13;;
26488;SDS011;14169;43.684;10.484;2022-08-25T17:14:00;2.85;;;1.20;;
26488;SDS011;14169;43.684;10.484;2022-08-25T17:16:29;2.95;;;1.20;;
26488;SDS011;14169;43.684;10.484;2022-08-25T17:18:56;1.48;;;1.20;;
26488;SDS011;14169;43.684;10.484;2022-08-25T17:21:24;1.67;;;1.23;;